Weather reports worldwide

Advertisment
Comiso, Italy (16475): temperature & dewpoint: 16.07.2019 02:00:00 - 22.07.2019 02:00:00 (CEST)Comiso, Italy (16475): wind speed: 16.07.2019 02:00:00 - 22.07.2019 02:00:00 (CEST)Comiso, Italy (16475): wind direction: 16.07.2019 02:00:00 - 22.07.2019 02:00:00 (CEST)Comiso, Italy (16475): visibility: 16.07.2019 02:00:00 - 22.07.2019 02:00:00 (CEST)
Date & Time tt [°C] td [°C] ff [km/h] ff [kn] dd vv [km]
22.07.2019 02:00:00 - - - - - -
22.07.2019 01:00:00 21,0 15,0 5 3 ENE 10
22.07.2019 00:00:00 22,0 15,0 4 2 E 10
21.07.2019 23:00:00 23,0 16,0 8 4 ENE 10
21.07.2019 22:00:00 24,0 16,0 2 1 - 10
21.07.2019 21:00:00 26,0 15,0 4 2 WNW 10
21.07.2019 20:00:00 27,0 15,0 5 3 W 10
21.07.2019 19:00:00 28,0 16,0 9 5 W 10
21.07.2019 18:00:00 29,0 17,0 16 9 W 10
21.07.2019 17:00:00 30,0 16,0 21 11 W 10
21.07.2019 16:00:00 30,0 17,0 16 9 WSW 10
21.07.2019 15:00:00 30,0 17,0 18 10 WSW 10
21.07.2019 14:00:00 29,0 17,0 16 9 SW 10
21.07.2019 13:00:00 29,0 18,0 21 11 WSW 10
21.07.2019 12:00:00 30,0 16,0 21 11 W 10
21.07.2019 11:00:00 29,0 14,0 11 6 WSW 10
21.07.2019 10:00:00 28,0 14,0 8 4 WSW 10
21.07.2019 09:00:00 27,0 13,0 8 4 WSW 10
21.07.2019 08:00:00 24,0 14,0 2 1 - 10
21.07.2019 07:00:00 20,0 14,0 5 3 ENE 10
21.07.2019 06:00:00 19,0 13,0 8 4 NE 10
21.07.2019 05:00:00 19,0 12,0 5 3 ENE 10
21.07.2019 04:00:00 20,0 12,0 8 4 NE 10
21.07.2019 03:00:00 20,0 11,0 5 3 ENE 10
21.07.2019 02:00:00 21,0 12,0 8 4 NE 10
21.07.2019 01:00:00 21,0 16,0 4 2 NE 10
21.07.2019 00:00:00 22,0 17,0 5 3 NE 10
20.07.2019 23:00:00 23,0 19,0 9 5 ENE 10
20.07.2019 22:00:00 23,0 20,0 4 2 - 10
20.07.2019 21:00:00 24,0 18,0 8 4 W 10
20.07.2019 20:00:00 26,0 16,0 11 6 WSW 10
20.07.2019 19:00:00 28,0 14,0 13 7 WSW 10
20.07.2019 18:00:00 28,0 14,0 16 9 SW 10
20.07.2019 17:00:00 30,0 15,0 16 9 SW 10
20.07.2019 16:00:00 29,0 15,0 16 9 SW 10
20.07.2019 15:00:00 30,0 17,0 22 12 WSW 10
20.07.2019 14:00:00 30,0 17,0 21 11 WSW 10
20.07.2019 13:00:00 30,0 16,0 11 6 - 10
20.07.2019 12:00:00 28,0 17,0 18 10 SW 10
20.07.2019 11:00:00 30,0 13,0 9 5 W 10
20.07.2019 10:00:00 28,0 14,0 4 2 - 10
20.07.2019 09:00:00 26,0 14,0 5 3 - 10
20.07.2019 08:00:00 24,0 14,0 4 2 - 10
20.07.2019 07:00:00 20,0 15,0 2 1 - 10
20.07.2019 06:00:00 19,0 14,0 5 3 E 10
20.07.2019 05:00:00 19,0 15,0 5 3 NE 10
20.07.2019 04:00:00 19,0 13,0 5 3 ENE 10
20.07.2019 03:00:00 20,0 13,0 8 4 ENE 10
20.07.2019 02:00:00 20,0 14,0 5 3 ENE 10
20.07.2019 01:00:00 20,0 14,0 9 5 NE 10
20.07.2019 00:00:00 20,0 16,0 8 4 ENE 10
19.07.2019 23:00:00 22,0 19,0 2 1 - 10
19.07.2019 22:00:00 22,0 19,0 2 1 - 10
19.07.2019 21:00:00 24,0 18,0 8 4 W 10
19.07.2019 20:00:00 25,0 16,0 9 5 WSW 10
19.07.2019 19:00:00 27,0 14,0 16 9 WSW 10
19.07.2019 18:00:00 28,0 12,0 18 10 WSW 10
19.07.2019 17:00:00 28,0 10,0 15 8 W 10
19.07.2019 16:00:00 - - - - - -
19.07.2019 15:00:00 28,0 11,0 22 12 WSW 10
19.07.2019 14:00:00 30,0 12,0 21 11 W 10
19.07.2019 13:00:00 29,0 12,0 16 9 W 10
19.07.2019 12:00:00 30,0 10,0 9 5 - 10
19.07.2019 11:00:00 28,0 10,0 8 4 - 10
19.07.2019 10:00:00 26,0 12,0 8 4 SW 10
19.07.2019 09:00:00 24,0 15,0 5 3 SW 10
19.07.2019 08:00:00 22,0 14,0 4 2 - 10
19.07.2019 07:00:00 18,0 13,0 5 3 ENE 10
19.07.2019 06:00:00 17,0 13,0 9 5 ENE 10
19.07.2019 05:00:00 17,0 13,0 5 3 ENE 10
19.07.2019 04:00:00 18,0 13,0 8 4 ENE 10
19.07.2019 03:00:00 19,0 14,0 9 5 ENE 10
19.07.2019 02:00:00 19,0 14,0 8 4 NE 10
19.07.2019 01:00:00 19,0 14,0 5 3 ENE 10
19.07.2019 00:00:00 20,0 15,0 5 3 ENE 10
18.07.2019 23:00:00 22,0 16,0 4 2 - 10
18.07.2019 22:00:00 22,0 17,0 4 2 - 10
18.07.2019 21:00:00 23,0 18,0 9 5 WSW 10
18.07.2019 20:00:00 25,0 14,0 13 7 W 10
18.07.2019 19:00:00 27,0 13,0 11 6 W 10
18.07.2019 18:00:00 27,0 15,0 15 8 WSW 10
18.07.2019 17:00:00 27,0 15,0 18 10 WSW 10
18.07.2019 16:00:00 28,0 12,0 21 11 SW 10
18.07.2019 15:00:00 29,0 12,0 22 12 WSW 10
18.07.2019 14:00:00 29,0 12,0 15 8 WSW 10
18.07.2019 13:00:00 - - - - - -
18.07.2019 12:00:00 29,0 10,0 9 5 - 10
18.07.2019 11:00:00 27,0 13,0 9 5 SW 10
18.07.2019 10:00:00 27,0 13,0 9 5 W 10
18.07.2019 09:00:00 24,0 14,0 5 3 SW 10
18.07.2019 08:00:00 22,0 15,0 5 3 SSW 10
18.07.2019 07:00:00 19,0 14,0 4 2 ENE 10
18.07.2019 06:00:00 18,0 13,0 4 2 - 10
18.07.2019 05:00:00 19,0 13,0 2 1 - 10
18.07.2019 04:00:00 19,0 13,0 8 4 ENE 10
18.07.2019 03:00:00 19,0 14,0 5 3 ENE 10
18.07.2019 02:00:00 20,0 15,0 5 3 NE 10
18.07.2019 01:00:00 20,0 15,0 4 2 - 10
18.07.2019 00:00:00 22,0 16,0 9 5 SE 10
17.07.2019 23:00:00 22,0 16,0 2 1 - 10
17.07.2019 22:00:00 24,0 16,0 8 4 SSW 10
17.07.2019 21:00:00 24,0 16,0 9 5 S 10
17.07.2019 20:00:00 25,0 17,0 13 7 SW 10
17.07.2019 19:00:00 26,0 16,0 16 9 WSW 10
17.07.2019 18:00:00 27,0 16,0 26 14 W 10
17.07.2019 17:00:00 28,0 17,0 24 13 WSW 10
17.07.2019 16:00:00 29,0 15,0 24 13 WSW 10
17.07.2019 15:00:00 29,0 15,0 29 16 W 10
17.07.2019 14:00:00 29,0 14,0 24 13 W 10
17.07.2019 13:00:00 - - - - - -
17.07.2019 12:00:00 29,0 10,0 18 10 NNE 10
17.07.2019 11:00:00 28,0 12,0 16 9 NNW 10
17.07.2019 10:00:00 26,0 13,0 9 5 N 10
17.07.2019 09:00:00 25,0 14,0 8 4 NE 10
17.07.2019 08:00:00 23,0 14,0 8 4 E 10
17.07.2019 07:00:00 17,0 14,0 5 3 S 10
17.07.2019 06:00:00 17,0 14,0 8 4 NNW 10
17.07.2019 05:00:00 18,0 14,0 5 3 E 10
17.07.2019 04:00:00 18,0 14,0 8 4 NE 10
17.07.2019 03:00:00 17,0 15,0 8 4 NE 10
17.07.2019 02:00:00 18,0 14,0 5 3 E 10
17.07.2019 01:00:00 19,0 15,0 5 3 ENE 10
17.07.2019 00:00:00 20,0 14,0 4 2 - 10
16.07.2019 23:00:00 22,0 15,0 8 4 NNE 10
16.07.2019 22:00:00 - - - - - -
16.07.2019 21:00:00 24,0 15,0 9 5 N 10
16.07.2019 20:00:00 26,0 15,0 15 8 N 10
16.07.2019 19:00:00 26,0 15,0 13 7 NNE 10
16.07.2019 18:00:00 26,0 15,0 16 9 NE 10
16.07.2019 17:00:00 25,0 17,0 15 8 NE 10
16.07.2019 16:00:00 22,0 17,0 18 10 N 10
16.07.2019 15:00:00 26,0 16,0 28 15 WSW 10
16.07.2019 14:00:00 27,0 14,0 35 19 W 10
16.07.2019 13:00:00 27,0 16,0 35 19 W 10
16.07.2019 12:00:00 26,0 14,0 35 19 W 10
16.07.2019 11:00:00 26,0 15,0 31 17 W 10
16.07.2019 10:00:00 25,0 17,0 21 11 W 10
16.07.2019 09:00:00 24,0 17,0 26 14 W 10
16.07.2019 08:00:00 22,0 18,0 9 5 SW 10
16.07.2019 07:00:00 20,0 18,0 8 4 S 9
16.07.2019 06:00:00 19,0 17,0 2 1 - 10
16.07.2019 05:00:00 19,0 18,0 5 3 ENE 10
16.07.2019 04:00:00 20,0 18,0 4 2 - 10
16.07.2019 03:00:00 20,0 18,0 4 2 - 10
16.07.2019 02:00:00 22,0 20,0 5 3 NNW 10

tt = temperature
td = dewpoint
ff = wind speed
dd = wind direction
vv = visibility

Next stations